Time;durP1;ratioP1;P1;durP2;ratioP2;P2;SDS_P1;SDS_P2;PMS_P1;PMS_P2;Temp;Humidity;BMP_temperature;BMP_pressure;BME280_temperature;BME280_humidity;BME280_pressure;Samples;Min_cycle;Max_cycle;Signal;HPM_P1;HPM_P2
2022/10/20 00:00:14;;;;;;;0.93;0.90;;;;;;;4.86;83.28;95866.94;6298212;28;20157;-70
2022/10/20 00:03:15;;;;;;;2.33;1.00;;;;;;;4.87;82.75;95853.84;6297764;28;20094;-70
2022/10/20 00:06:25;;;;;;;1.67;1.20;;;;;;;4.83;82.91;95841.91;6298128;28;20045;-70
2022/10/20 00:09:29;;;;;;;2.55;1.20;;;;;;;4.84;83.04;95817.53;6296860;28;20518;-69
2022/10/20 00:12:30;;;;;;;1.00;0.90;;;;;;;4.86;83.15;95846.94;6297728;28;20510;-70
2022/10/20 00:15:34;;;;;;;1.42;1.13;;;;;;;4.88;83.27;95850.28;6297429;28;20044;-70
2022/10/20 00:18:36;;;;;;;0.70;0.70;;;;;;;4.91;83.10;95818.84;6297261;28;20130;-69
2022/10/20 00:21:42;;;;;;;0.80;0.80;;;;;;;4.96;83.36;95826.41;6297864;28;20048;-69
2022/10/20 00:24:51;;;;;;;1.15;0.75;;;;;;;4.95;82.96;95822.97;6298113;28;20041;-69
2022/10/20 00:27:57;;;;;;;0.60;0.60;;;;;;;4.92;83.50;95841.34;6297424;28;20048;-69
2022/10/20 00:30:59;;;;;;;0.82;0.68;;;;;;;4.87;83.01;95848.63;6295979;28;20052;-70
2022/10/20 00:34:05;;;;;;;0.85;0.70;;;;;;;4.92;82.27;95869.19;6297410;28;20131;-70
2022/10/20 00:37:10;;;;;;;0.82;0.70;;;;;;;4.89;82.32;95880.63;6297307;28;20048;-69
2022/10/20 00:40:12;;;;;;;0.73;0.73;;;;;;;4.77;81.96;95873.53;6296771;28;20080;-69
2022/10/20 00:43:17;;;;;;;0.70;0.60;;;;;;;4.65;82.42;95848.19;6297000;28;20048;-70
2022/10/20 00:46:35;;;;;;;0.98;0.70;;;;;;;4.66;82.62;95861.13;6297088;28;20488;-71
2022/10/20 00:49:37;;;;;;;1.45;0.52;;;;;;;4.72;82.87;95857.31;6297071;28;20175;-70
2022/10/20 00:52:41;;;;;;;0.60;0.60;;;;;;;4.81;82.49;95853.34;6296923;28;20051;-70
2022/10/20 00:55:49;;;;;;;0.40;0.40;;;;;;;4.71;82.36;95848.66;6296910;28;20054;-70
2022/10/20 00:58:56;;;;;;;0.80;0.80;;;;;;;4.70;82.53;95836.59;6296845;28;20143;-70
2022/10/20 01:02:00;;;;;;;0.70;0.70;;;;;;;4.73;82.72;95835.56;6296537;28;20049;-70
2022/10/20 01:05:02;;;;;;;0.60;0.60;;;;;;;4.76;82.69;95839.75;6296740;28;20051;-70
2022/10/20 01:08:04;;;;;;;0.40;0.40;;;;;;;4.78;82.67;95845.72;6296335;28;20052;-70
2022/10/20 01:11:17;;;;;;;0.40;0.40;;;;;;;4.79;82.50;95853.44;6296414;28;20527;-70
2022/10/20 01:14:44;;;;;;;0.73;0.50;;;;;;;4.78;82.25;95867.38;6296651;28;20438;-71
2022/10/20 01:17:49;;;;;;;0.30;0.30;;;;;;;4.84;82.10;95887.91;6294124;28;20106;-70
2022/10/20 01:21:32;;;;;;;0.40;0.40;;;;;;;4.91;82.06;95891.81;6296042;28;20057;-70
2022/10/20 01:24:46;;;;;;;0.38;0.38;;;;;;;4.94;82.04;95896.84;6296241;28;20045;-70
2022/10/20 01:28:04;;;;;;;0.30;0.30;;;;;;;4.94;81.99;95903.84;6296180;28;20041;-71
2022/10/20 01:31:41;;;;;;;0.30;0.30;;;;;;;5.00;82.02;95915.69;6296315;28;20048;-70
2022/10/20 01:34:52;;;;;;;1.48;0.57;;;;;;;5.03;81.96;95918.09;6296176;28;20052;-70
2022/10/20 01:38:21;;;;;;;0.40;0.40;;;;;;;5.06;81.96;95923.16;6296126;28;20036;-71
2022/10/20 01:41:41;;;;;;;1.25;1.00;;;;;;;5.05;81.68;95918.88;6295767;28;20048;-70
2022/10/20 01:44:47;;;;;;;1.73;0.73;;;;;;;5.04;81.85;95911.94;6296005;28;20131;-71
2022/10/20 01:47:50;;;;;;;1.33;1.10;;;;;;;5.00;81.92;95900.03;6295791;28;20175;-70
2022/10/20 01:50:52;;;;;;;1.30;1.10;;;;;;;5.00;81.96;95889.59;6295717;28;20080;-70
2022/10/20 01:53:58;;;;;;;1.10;1.00;;;;;;;5.00;81.63;95887.84;6295662;28;20844;-70
2022/10/20 01:57:17;;;;;;;1.85;1.17;;;;;;;4.99;81.68;95877.50;6295713;28;20071;-70
2022/10/20 02:00:24;;;;;;;1.50;0.90;;;;;;;4.94;81.77;95860.34;6295658;28;20044;-70
2022/10/20 02:03:40;;;;;;;0.70;0.60;;;;;;;4.91;81.41;95855.31;6295501;28;20162;-69
2022/10/20 02:06:50;;;;;;;2.13;1.42;;;;;;;4.90;81.38;95874.50;6295580;28;20052;-70
2022/10/20 02:10:15;;;;;;;2.60;2.03;;;;;;;4.90;81.69;95874.50;6295502;28;20521;-70
2022/10/20 02:13:20;;;;;;;3.22;1.88;;;;;;;4.90;81.47;95874.50;6295247;28;20044;-71
2022/10/20 02:16:51;;;;;;;3.47;1.92;;;;;;;4.97;81.33;95874.16;6294051;28;20047;-70
2022/10/20 02:19:53;;;;;;;13.02;8.73;;;;;;;4.95;81.65;95869.88;6294438;28;20079;-70
2022/10/20 02:22:59;;;;;;;3.95;2.40;;;;;;;4.96;81.64;95881.13;6293853;28;20103;-71
2022/10/20 02:26:10;;;;;;;3.42;2.25;;;;;;;5.00;81.64;95881.78;6294310;28;20139;-70
2022/10/20 02:29:19;;;;;;;3.72;1.52;;;;;;;5.06;81.75;95884.88;6295033;28;20422;-70
2022/10/20 02:32:24;;;;;;;2.08;1.38;;;;;;;5.08;81.51;95892.63;6294864;28;20045;-71
2022/10/20 02:35:30;;;;;;;1.70;1.30;;;;;;;5.11;81.60;95893.25;6295013;28;20131;-70
2022/10/20 02:38:34;;;;;;;1.15;1.05;;;;;;;5.09;81.50;95884.69;6294726;28;20417;-70
2022/10/20 02:41:36;;;;;;;1.70;1.60;;;;;;;5.14;81.25;95893.06;6299660;28;20084;-71
2022/10/20 02:44:37;;;;;;;1.17;1.08;;;;;;;5.16;81.43;95890.41;6300081;28;20074;-71
2022/10/20 02:47:39;;;;;;;1.85;1.17;;;;;;;5.18;81.55;95899.81;6299205;28;20121;-70
2022/10/20 02:50:41;;;;;;;2.50;1.40;;;;;;;5.24;81.38;95893.41;6298232;28;20040;-70
2022/10/20 02:53:43;;;;;;;1.65;1.33;;;;;;;5.28;81.42;95894.88;6298236;28;20428;-70
2022/10/20 02:56:45;;;;;;;2.03;1.70;;;;;;;5.29;81.43;95880.06;6299506;28;20044;-71
2022/10/20 02:59:48;;;;;;;2.08;1.83;;;;;;;5.31;81.35;95899.06;6299068;28;20045;-70
2022/10/20 03:02:50;;;;;;;1.60;1.50;;;;;;;5.30;81.38;95895.63;6299249;28;20037;-70
2022/10/20 03:05:52;;;;;;;23.90;14.95;;;;;;;5.37;81.63;95904.75;6299418;28;20036;-70
2022/10/20 03:08:56;;;;;;;3.75;3.28;;;;;;;5.42;81.53;95907.09;6299239;28;20135;-70
2022/10/20 03:11:57;;;;;;;3.20;1.70;;;;;;;5.44;81.42;95904.41;6298810;28;20041;-70
2022/10/20 03:14:58;;;;;;;2.97;1.42;;;;;;;5.46;81.28;95908.59;6298290;28;20055;-69
2022/10/20 03:18:02;;;;;;;1.50;0.98;;;;;;;5.45;81.29;95906.09;6298810;28;20456;-70
2022/10/20 03:21:06;;;;;;;1.95;1.40;;;;;;;5.48;81.15;95916.31;6298945;28;20044;-70
2022/10/20 03:24:08;;;;;;;1.10;1.00;;;;;;;5.52;81.09;95913.47;6297588;28;20038;-70
2022/10/20 03:27:09;;;;;;;1.23;0.95;;;;;;;5.51;80.69;95921.34;6298838;28;20529;-70
2022/10/20 03:30:11;;;;;;;1.30;0.90;;;;;;;5.54;80.98;95937.66;6298470;28;20059;-69
2022/10/20 03:33:12;;;;;;;1.30;1.20;;;;;;;5.58;80.79;95946.16;6298603;28;20059;-69
2022/10/20 03:36:17;;;;;;;1.27;1.17;;;;;;;5.57;80.67;95947.09;6298379;28;20036;-71
2022/10/20 03:39:19;;;;;;;1.05;1.00;;;;;;;5.52;80.28;95943.91;6298618;28;20070;-69
2022/10/20 03:42:20;;;;;;;1.33;1.10;;;;;;;5.55;80.73;95949.81;6298258;28;20502;-71
2022/10/20 03:45:27;;;;;;;1.30;1.10;;;;;;;5.62;80.43;95950.25;6298693;28;20044;-69
2022/10/20 03:48:34;;;;;;;1.67;1.10;;;;;;;5.66;80.65;95956.97;6298437;28;20044;-70
2022/10/20 03:51:35;;;;;;;2.20;1.60;;;;;;;5.67;80.25;95948.22;6297262;28;20049;-70
2022/10/20 03:54:36;;;;;;;3.88;1.60;;;;;;;5.72;80.46;95946.19;6298376;28;20083;-70
2022/10/20 03:57:37;;;;;;;2.15;1.65;;;;;;;5.77;80.22;95944.09;6298090;28;20068;-71
2022/10/20 04:00:44;;;;;;;1.40;1.30;;;;;;;5.76;80.19;95958.09;6298198;28;20123;-68
2022/10/20 04:03:46;;;;;;;2.08;1.60;;;;;;;5.78;79.58;95964.06;6298114;28;20052;-69
2022/10/20 04:06:50;;;;;;;2.72;1.63;;;;;;;5.82;80.04;95955.13;6298220;28;20506;-70
2022/10/20 04:09:51;;;;;;;1.48;1.38;;;;;;;5.85;80.06;95978.41;6297573;28;20044;-71
2022/10/20 04:13:00;;;;;;;1.48;1.33;;;;;;;5.83;79.74;95984.66;6298014;28;20517;-70
2022/10/20 04:16:01;;;;;;;1.85;1.40;;;;;;;5.79;79.94;95984.00;6297898;28;20417;-71
2022/10/20 04:19:03;;;;;;;1.77;1.45;;;;;;;5.79;79.75;95989.25;6296892;28;20430;-70
2022/10/20 04:22:07;;;;;;;1.63;1.52;;;;;;;5.84;79.55;95988.97;6297346;28;20126;-69
2022/10/20 04:25:16;;;;;;;2.00;1.50;;;;;;;5.89;79.39;96004.34;6297762;28;20056;-70
2022/10/20 04:28:19;;;;;;;1.35;1.20;;;;;;;5.90;79.20;96011.25;6297425;28;20044;-70
2022/10/20 04:31:22;;;;;;;3.92;2.17;;;;;;;5.94;79.06;96002.34;6297610;28;20102;-70
2022/10/20 04:34:26;;;;;;;8.38;4.32;;;;;;;5.99;79.17;96005.50;6297095;28;20051;-70
2022/10/20 04:37:34;;;;;;;7.72;4.57;;;;;;;6.06;78.89;96018.13;6297341;28;20410;-70
2022/10/20 04:40:35;;;;;;;6.53;4.55;;;;;;;6.10;79.14;96012.69;6297329;28;20052;-70
2022/10/20 04:43:39;;;;;;;6.10;4.13;;;;;;;6.10;78.89;96016.16;6297401;28;20056;-69
2022/10/20 04:46:41;;;;;;;4.20;3.03;;;;;;;6.14;79.21;96020.25;6297325;28;20045;-70
2022/10/20 04:49:45;;;;;;;3.67;3.08;;;;;;;6.00;78.80;95997.59;6297015;28;20166;-70
2022/10/20 04:52:51;;;;;;;3.40;2.85;;;;;;;6.20;78.62;96019.03;6296981;28;20040;-69
2022/10/20 04:55:56;;;;;;;2.65;2.28;;;;;;;6.18;78.04;96037.41;6296980;28;20422;-70
2022/10/20 04:59:00;;;;;;;3.13;2.47;;;;;;;6.16;78.10;96041.88;6295987;28;20048;-70
2022/10/20 05:02:01;;;;;;;2.20;2.00;;;;;;;6.18;78.25;96037.41;6296137;28;20049;-70
2022/10/20 05:05:03;;;;;;;2.42;2.03;;;;;;;6.24;77.85;96037.03;6296529;28;20090;-69
2022/10/20 05:08:09;;;;;;;2.80;1.58;;;;;;;6.23;77.82;96029.31;6296532;28;20052;-69
2022/10/20 05:11:19;;;;;;;2.05;1.67;;;;;;;6.31;77.83;96042.72;6296574;28;20506;-68
2022/10/20 05:14:20;;;;;;;1.50;1.20;;;;;;;6.35;77.92;96044.22;6296116;28;20435;-68
2022/10/20 05:17:22;;;;;;;2.05;1.35;;;;;;;6.35;77.41;96048.63;6296555;28;20403;-69
2022/10/20 05:20:24;;;;;;;1.27;1.17;;;;;;;6.38;77.50;96058.88;6295078;28;20064;-69
2022/10/20 05:23:27;;;;;;;;;;;;;;;6.31;77.39;96068.84;6296752;28;20032;-70
2022/10/20 05:26:33;;;;;;;2.83;1.90;;;;;;;6.24;78.06;96076.22;6296268;28;19920;-69
2022/10/20 05:29:37;;;;;;;3.45;2.53;;;;;;;6.20;78.09;96074.75;6295770;28;20056;-70
2022/10/20 05:32:39;;;;;;;2.97;2.42;;;;;;;6.15;77.85;96074.19;6296245;28;20135;-69
2022/10/20 05:35:42;;;;;;;2.40;1.42;;;;;;;6.16;77.97;96060.19;6295819;28;20032;-69
2022/10/20 05:38:48;;;;;;;2.28;1.50;;;;;;;6.21;77.94;96073.81;6295862;28;20045;-70
2022/10/20 05:41:52;;;;;;;1.40;1.10;;;;;;;6.28;78.04;96069.03;6295945;28;20055;-70
2022/10/20 05:44:56;;;;;;;2.78;1.10;;;;;;;6.24;77.84;96063.16;6295854;28;20041;-69
2022/10/20 05:48:04;;;;;;;0.70;0.70;;;;;;;6.31;77.68;96063.63;6295644;28;20048;-69
2022/10/20 05:51:18;;;;;;;1.50;1.40;;;;;;;6.39;77.74;96071.00;6295679;28;20082;-70
2022/10/20 05:54:27;;;;;;;4.65;3.70;;;;;;;6.46;77.21;96060.09;6295626;28;20040;-69
2022/10/20 05:57:32;;;;;;;3.75;2.45;;;;;;;6.65;76.95;96067.66;6295520;28;20036;-69
2022/10/20 06:00:40;;;;;;;2.72;2.38;;;;;;;6.81;76.62;96062.28;6295267;28;20082;-68
2022/10/20 06:03:59;;;;;;;2.63;2.42;;;;;;;6.94;76.34;96059.75;6295320;28;20131;-69
2022/10/20 06:07:00;;;;;;;2.40;2.20;;;;;;;6.99;75.76;96062.88;6295024;28;20048;-69
2022/10/20 06:10:03;;;;;;;1.83;1.55;;;;;;;7.03;75.87;96072.22;6295235;28;20059;-69
2022/10/20 06:13:09;;;;;;;1.50;1.40;;;;;;;7.09;75.63;96077.06;6294898;28;20056;-68
2022/10/20 06:16:16;;;;;;;1.02;0.88;;;;;;;7.14;75.85;96075.00;6294330;28;20669;-68
2022/10/20 06:19:18;;;;;;;1.20;1.10;;;;;;;7.35;75.50;96077.16;6295143;28;20163;-69
2022/10/20 06:22:19;;;;;;;1.60;1.17;;;;;;;7.54;74.81;96080.28;6295348;28;20045;-69
2022/10/20 06:25:23;;;;;;;2.83;0.82;;;;;;;7.61;74.30;96081.56;6294751;28;20040;-69
2022/10/20 06:28:24;;;;;;;1.15;1.05;;;;;;;7.71;74.24;96091.44;6292917;28;20052;-68
2022/10/20 06:31:29;;;;;;;3.60;3.03;;;;;;;7.74;73.65;96092.06;6293526;28;20045;-68
2022/10/20 06:34:33;;;;;;;1.25;1.15;;;;;;;7.60;73.73;96077.25;6294964;28;20430;-69
2022/10/20 06:37:36;;;;;;;1.00;0.90;;;;;;;7.80;73.23;96109.16;6295095;28;20040;-69
2022/10/20 06:40:38;;;;;;;1.20;1.10;;;;;;;7.81;72.96;96100.34;6294948;28;20494;-68
2022/10/20 06:43:39;;;;;;;2.05;1.10;;;;;;;7.91;73.07;96095.34;6294890;28;20067;-69
2022/10/20 06:46:42;;;;;;;1.20;1.10;;;;;;;8.04;72.43;96085.72;6295128;28;20051;-69
2022/10/20 06:49:43;;;;;;;1.20;1.05;;;;;;;8.13;72.18;96084.28;6294917;28;20681;-69
2022/10/20 06:52:44;;;;;;;0.90;0.88;;;;;;;8.22;71.76;96091.50;6295037;28;20051;-69
2022/10/20 06:55:58;;;;;;;1.88;0.80;;;;;;;8.42;70.74;96101.50;6294863;28;20098;-69
2022/10/20 06:59:02;;;;;;;0.98;0.90;;;;;;;8.56;70.64;96105.78;6294794;28;20486;-70
2022/10/20 07:02:11;;;;;;;2.03;1.17;;;;;;;8.61;70.20;96110.72;6294803;28;20489;-68
2022/10/20 07:05:12;;;;;;;3.00;1.52;;;;;;;8.54;70.00;96112.91;6294780;28;20071;-70
2022/10/20 07:08:16;;;;;;;2.50;1.50;;;;;;;8.42;69.97;96109.34;6294479;28;20046;-69
2022/10/20 07:11:20;;;;;;;2.92;2.17;;;;;;;8.29;70.27;96118.97;6294758;28;20040;-69
2022/10/20 07:14:24;;;;;;;5.93;3.38;;;;;;;8.22;70.56;96112.47;6294360;28;20044;-69
2022/10/20 07:17:28;;;;;;;3.50;3.17;;;;;;;8.20;70.19;96119.59;6292827;28;20045;-69
2022/10/20 07:20:30;;;;;;;5.43;3.97;;;;;;;8.15;70.36;96113.81;6294380;28;20568;-69
2022/10/20 07:23:35;;;;;;;5.57;4.03;;;;;;;8.18;70.39;96129.31;6294133;28;20037;-70
2022/10/20 07:26:38;;;;;;;5.82;3.92;;;;;;;8.20;70.20;96116.97;6297175;28;20040;-70
2022/10/20 07:29:42;;;;;;;5.60;3.30;;;;;;;8.18;70.15;96118.84;6298717;28;20045;-70
2022/10/20 07:32:46;;;;;;;5.10;2.95;;;;;;;8.27;70.41;96118.25;6298619;28;20543;-69
2022/10/20 07:35:48;;;;;;;2.83;2.58;;;;;;;8.22;70.13;96115.09;6298305;28;20036;-70
2022/10/20 07:38:52;;;;;;;2.50;1.50;;;;;;;8.27;70.01;96128.72;6298581;28;20532;-68
2022/10/20 07:41:53;;;;;;;2.45;1.40;;;;;;;8.29;69.93;96132.06;6298381;28;20492;-70
2022/10/20 07:44:55;;;;;;;1.48;1.10;;;;;;;8.36;69.70;96135.13;6298478;28;20403;-69
2022/10/20 07:48:00;;;;;;;2.53;1.30;;;;;;;8.30;69.98;96133.75;6298298;28;20047;-69
2022/10/20 07:51:27;;;;;;;0.80;0.80;;;;;;;8.33;69.61;96139.63;6298001;28;20300;-69
2022/10/20 07:54:31;;;;;;;0.70;0.70;;;;;;;8.14;69.23;96143.59;6298060;28;20102;-71
2022/10/20 07:57:35;;;;;;;1.00;0.80;;;;;;;8.06;69.37;96138.84;6298171;28;20049;-69
2022/10/20 08:00:39;;;;;;;8.05;5.18;;;;;;;8.13;69.19;96144.53;6298143;28;20037;-69
2022/10/20 08:03:45;;;;;;;3.05;2.25;;;;;;;8.22;69.38;96147.38;6298273;28;20044;-68
2022/10/20 08:06:49;;;;;;;1.10;1.00;;;;;;;8.37;68.75;96145.50;6297821;28;20052;-71
2022/10/20 08:09:52;;;;;;;0.50;0.50;;;;;;;8.41;68.66;96140.94;6297366;28;20048;-69
2022/10/20 08:13:01;;;;;;;2.70;0.80;;;;;;;8.65;68.56;96143.66;6297838;28;20410;-70
2022/10/20 08:16:03;;;;;;;0.82;0.68;;;;;;;8.87;68.08;96149.09;6297557;28;20056;-69
2022/10/20 08:23:49;;;;;;;1.65;1.20;;;;;;;9.08;67.17;96151.16;6298372;28;20053;-70
2022/10/20 08:26:55;;;;;;;2.30;1.60;;;;;;;8.92;67.30;96165.34;6297539;28;20040;-68
2022/10/20 08:29:56;;;;;;;2.58;2.15;;;;;;;8.83;68.05;96162.50;6297092;28;20036;-69
2022/10/20 08:33:01;;;;;;;2.55;1.85;;;;;;;8.87;67.73;96164.00;6296455;28;20040;-71
2022/10/20 08:36:08;;;;;;;1.50;1.17;;;;;;;9.03;67.77;96174.25;6297212;28;20063;-68
2022/10/20 08:39:12;;;;;;;1.92;1.60;;;;;;;9.13;67.20;96170.88;6296613;28;20040;-68
2022/10/20 08:42:13;;;;;;;1.00;0.85;;;;;;;9.20;66.82;96173.94;6297194;28;20137;-69
2022/10/20 08:45:22;;;;;;;1.60;1.40;;;;;;;9.28;66.17;96171.56;6296983;28;20040;-70
2022/10/20 08:48:27;;;;;;;0.93;0.82;;;;;;;9.24;66.11;96167.50;6296692;28;20048;-69
2022/10/20 08:51:36;;;;;;;1.20;0.90;;;;;;;9.30;66.32;96177.56;6296574;28;20044;-71
2022/10/20 08:54:40;;;;;;;0.80;0.70;;;;;;;9.35;65.21;96179.88;6296270;28;20044;-68
2022/10/20 08:57:47;;;;;;;1.30;1.20;;;;;;;9.32;64.37;96186.19;6296552;28;20088;-70
2022/10/20 09:00:55;;;;;;;1.48;1.33;;;;;;;9.17;64.26;96177.59;6295000;28;20060;-70
2022/10/20 09:04:10;;;;;;;1.50;1.20;;;;;;;9.09;64.23;96179.94;6296393;28;20044;-70
2022/10/20 09:07:21;;;;;;;0.95;0.90;;;;;;;8.83;64.65;96184.38;6295157;28;20524;-69
2022/10/20 09:10:37;;;;;;;1.55;1.15;;;;;;;8.74;65.28;96184.97;6296101;28;20044;-70
2022/10/20 09:13:39;;;;;;;2.38;1.50;;;;;;;8.62;65.07;96181.41;6296128;28;20178;-69
2022/10/20 09:16:42;;;;;;;1.77;1.27;;;;;;;8.46;65.73;96184.22;6295860;28;20508;-69
2022/10/20 09:19:53;;;;;;;1.90;1.13;;;;;;;8.42;66.02;96177.50;6295907;28;20044;-69
2022/10/20 09:22:54;;;;;;;1.35;1.10;;;;;;;8.49;65.82;96181.41;6295446;28;20505;-70
2022/10/20 09:26:01;;;;;;;2.13;1.55;;;;;;;8.66;64.99;96172.41;6295751;28;20040;-69
2022/10/20 09:29:10;;;;;;;1.85;1.20;;;;;;;8.73;65.67;96183.31;6295784;28;20143;-70
2022/10/20 09:32:39;;;;;;;1.73;1.30;;;;;;;8.84;64.94;96186.03;6295374;28;20045;-69
2022/10/20 09:35:49;;;;;;;1.45;0.82;;;;;;;8.76;64.87;96194.41;6295586;28;20036;-69
2022/10/20 09:38:53;;;;;;;1.40;1.20;;;;;;;8.72;64.62;96189.50;6295427;28;20048;-69
2022/10/20 09:42:04;;;;;;;1.38;1.27;;;;;;;8.56;65.26;96191.50;6295577;28;20052;-70
2022/10/20 09:45:18;;;;;;;2.97;1.73;;;;;;;8.50;65.94;96192.75;6295420;28;20056;-70
2022/10/20 09:48:23;;;;;;;1.42;1.33;;;;;;;8.57;66.05;96193.16;6294938;28;20039;-70
2022/10/20 09:51:27;;;;;;;1.20;1.10;;;;;;;8.64;65.46;96194.44;6294929;28;20418;-69
2022/10/20 09:54:31;;;;;;;1.63;0.80;;;;;;;8.52;66.28;96210.06;6295546;28;20040;-69
2022/10/20 09:57:33;;;;;;;1.25;0.80;;;;;;;8.58;65.98;96205.31;6295095;28;20135;-69
2022/10/20 10:00:53;;;;;;;1.17;0.90;;;;;;;8.64;65.54;96204.94;6295053;28;20055;-69
2022/10/20 10:04:00;;;;;;;1.85;1.42;;;;;;;8.58;65.87;96200.06;6294167;28;20044;-69
2022/10/20 10:07:23;;;;;;;2.30;1.00;;;;;;;8.72;65.99;96207.88;6295293;28;20044;-70
2022/10/20 10:10:31;;;;;;;1.92;1.17;;;;;;;8.95;65.62;96222.03;6295201;28;20484;-69
2022/10/20 10:13:41;;;;;;;1.13;0.80;;;;;;;9.15;64.71;96221.50;6295154;28;20078;-69
2022/10/20 10:16:44;;;;;;;2.35;1.13;;;;;;;9.02;64.89;96215.41;6295376;28;20040;-69
2022/10/20 10:19:47;;;;;;;1.67;1.05;;;;;;;9.01;65.05;96212.91;6293071;28;20472;-69
2022/10/20 10:22:49;;;;;;;1.05;0.95;;;;;;;8.93;65.08;96206.38;6294946;28;20051;-68
2022/10/20 10:25:53;;;;;;;1.25;0.93;;;;;;;8.99;64.62;96213.81;6295186;28;20135;-70
2022/10/20 10:33:38;;;;;;;1.60;0.90;;;;;;;8.69;65.32;96218.53;6295942;28;20052;-69
2022/10/20 10:36:44;;;;;;;1.35;0.77;;;;;;;8.71;65.67;96227.97;6294898;28;20036;-68
2022/10/20 10:39:51;;;;;;;1.13;0.80;;;;;;;8.83;65.63;96218.47;6294897;28;20127;-69
2022/10/20 10:43:28;;;;;;;1.27;0.90;;;;;;;8.99;65.58;96231.34;6294811;28;20422;-68
2022/10/20 10:46:40;;;;;;;1.55;0.98;;;;;;;8.98;65.46;96230.53;6293230;28;20422;-69
2022/10/20 10:49:52;;;;;;;;;;;;;;;8.98;65.04;96227.91;6294925;28;20040;-69
2022/10/20 10:53:08;;;;;;;1.35;0.80;;;;;;;8.87;65.37;96235.66;6294824;28;19920;-69
2022/10/20 10:56:18;;;;;;;1.10;0.60;;;;;;;8.89;65.61;96236.41;6295080;28;20059;-71
2022/10/20 10:59:32;;;;;;;1.85;1.52;;;;;;;8.99;65.71;96241.84;6294963;28;20052;-69
2022/10/20 11:02:39;;;;;;;1.40;0.75;;;;;;;9.02;65.57;96251.31;6298697;28;20048;-69
2022/10/20 11:06:18;;;;;;;0.90;0.63;;;;;;;8.98;65.23;96246.28;6299363;28;20044;-70
2022/10/20 11:09:28;;;;;;;2.75;0.98;;;;;;;8.79;65.35;96245.84;6299256;28;20166;-70
2022/10/20 11:13:00;;;;;;;0.60;0.60;;;;;;;8.68;65.15;96253.59;6299106;28;20046;-69
2022/10/20 11:16:14;;;;;;;0.82;0.65;;;;;;;8.58;65.74;96247.28;6299056;28;20076;-69
2022/10/20 11:19:57;;;;;;;1.75;1.20;;;;;;;8.49;66.02;96249.59;6299122;28;20036;-69
2022/10/20 11:23:28;;;;;;;1.48;0.93;;;;;;;8.48;66.26;96247.88;6298954;28;20052;-70
2022/10/20 11:26:35;;;;;;;1.42;0.88;;;;;;;8.51;65.96;96247.69;6298840;28;20106;-70
2022/10/20 11:29:44;;;;;;;1.35;0.80;;;;;;;8.46;66.06;96248.94;6298748;28;20052;-69
2022/10/20 11:33:13;;;;;;;1.45;0.98;;;;;;;8.45;66.14;96263.81;6298550;28;20037;-69
2022/10/20 11:36:20;;;;;;;1.38;0.98;;;;;;;8.41;66.08;96251.88;6298488;28;20064;-70
2022/10/20 11:39:40;;;;;;;2.17;1.35;;;;;;;8.40;66.09;96250.19;6298512;28;20041;-69
2022/10/20 11:43:00;;;;;;;1.60;1.00;;;;;;;8.42;66.23;96257.94;6298225;28;20056;-69
2022/10/20 11:46:19;;;;;;;2.38;1.30;;;;;;;8.28;66.52;96264.06;6298383;28;20048;-69
2022/10/20 11:49:21;;;;;;;1.75;0.88;;;;;;;8.17;66.87;96256.06;6298113;28;20409;-69
2022/10/20 11:52:44;;;;;;;1.33;1.20;;;;;;;8.13;67.34;96257.22;6297881;28;20472;-70
2022/10/20 11:56:05;;;;;;;2.88;1.50;;;;;;;8.06;67.40;96256.75;6296708;28;20048;-69
2022/10/20 11:59:38;;;;;;;3.70;2.45;;;;;;;8.10;67.82;96259.09;6297940;28;20040;-69
2022/10/20 12:03:03;;;;;;;3.30;1.60;;;;;;;8.09;67.93;96262.63;6289786;28;20048;-69
2022/10/20 12:06:31;;;;;;;3.08;2.00;;;;;;;8.03;68.29;96268.25;6297816;28;20136;-69
2022/10/20 12:09:57;;;;;;;2.80;2.10;;;;;;;7.93;68.76;96261.97;6297569;28;20044;-70
2022/10/20 12:13:30;;;;;;;4.93;3.30;;;;;;;7.90;69.07;96267.41;6296444;28;20052;-69
2022/10/20 12:16:53;;;;;;;3.13;2.58;;;;;;;7.83;69.41;96271.31;6295818;28;20461;-70
2022/10/20 12:20:21;;;;;;;3.05;2.28;;;;;;;7.81;69.48;96273.19;6297315;28;20052;-68
2022/10/20 12:24:04;;;;;;;3.25;2.53;;;;;;;7.77;69.37;96261.25;6286685;28;20525;-69
2022/10/20 12:27:05;;;;;;;3.20;2.17;;;;;;;7.74;69.70;96262.28;6271361;28;20040;-69
2022/10/20 12:30:46;;;;;;;1.95;1.40;;;;;;;7.65;70.38;96278.56;6295720;28;20052;-68
2022/10/20 12:33:49;;;;;;;2.28;1.50;;;;;;;7.50;70.35;96280.38;6288919;28;20094;-69
2022/10/20 12:37:05;;;;;;;2.38;1.67;;;;;;;7.45;70.89;96279.81;6297246;28;20044;-69
2022/10/20 12:40:06;;;;;;;1.65;1.00;;;;;;;7.45;71.02;96279.81;6296961;28;20048;-69
2022/10/20 12:43:27;;;;;;;3.15;2.05;;;;;;;7.40;71.59;96287.09;6296407;28;20492;-68
2022/10/20 12:46:33;;;;;;;3.65;2.50;;;;;;;7.37;71.43;96287.31;6296905;28;20391;-69
2022/10/20 12:49:43;;;;;;;4.55;2.28;;;;;;;7.40;71.53;96289.72;6296405;28;20082;-69
2022/10/20 12:52:46;;;;;;;2.75;1.88;;;;;;;7.40;71.70;96292.34;6295943;28;20139;-69
2022/10/20 12:56:00;;;;;;;3.25;2.60;;;;;;;7.43;71.99;96294.78;6296120;28;20042;-70
2022/10/20 12:59:32;;;;;;;6.05;2.80;;;;;;;7.44;72.22;96291.19;6296338;28;20040;-69
2022/10/20 13:02:46;;;;;;;3.88;2.42;;;;;;;7.50;71.86;96296.09;6296451;28;20044;-69
2022/10/20 13:05:49;;;;;;;4.35;2.88;;;;;;;7.50;72.04;96296.09;6296436;28;20041;-68
2022/10/20 13:09:05;;;;;;;4.05;2.90;;;;;;;7.52;72.30;96282.88;6296322;28;20048;-70
2022/10/20 13:12:25;;;;;;;4.00;2.30;;;;;;;7.49;71.92;96283.91;6296255;28;20076;-68
2022/10/20 13:15:36;;;;;;;6.65;3.05;;;;;;;7.46;72.17;96284.09;6296186;28;20190;-70
2022/10/20 13:18:44;;;;;;;3.67;2.17;;;;;;;7.50;72.36;96285.63;6296014;28;20045;-69
2022/10/20 13:21:50;;;;;;;3.63;2.50;;;;;;;7.52;71.93;96296.81;6295968;28;20040;-69
2022/10/20 13:24:55;;;;;;;5.55;3.47;;;;;;;7.47;71.89;96293.63;6295631;28;20029;-70
2022/10/20 13:28:12;;;;;;;7.37;3.40;;;;;;;7.54;72.02;96297.56;6295590;28;20486;-69
2022/10/20 13:31:28;;;;;;;7.00;4.57;;;;;;;7.51;72.14;96297.75;6295603;28;20037;-70
2022/10/20 13:34:46;;;;;;;6.00;4.25;;;;;;;7.48;72.11;96297.94;6296040;28;20131;-70
2022/10/20 13:37:53;;;;;;;7.18;4.50;;;;;;;7.52;71.76;96299.44;6296042;28;20051;-69
2022/10/20 13:41:07;;;;;;;6.38;4.22;;;;;;;7.52;72.24;96309.06;6295515;28;20058;-70
2022/10/20 13:44:26;;;;;;;6.45;3.70;;;;;;;7.57;71.57;96305.22;6295619;28;20041;-70
2022/10/20 13:47:49;;;;;;;5.70;3.92;;;;;;;7.54;71.73;96308.03;6295298;28;20066;-70
2022/10/20 13:51:23;;;;;;;5.35;3.45;;;;;;;7.45;71.57;96316.47;6295320;28;20086;-69
2022/10/20 13:54:28;;;;;;;4.90;2.95;;;;;;;7.31;72.21;96321.69;6295072;28;20044;-70
2022/10/20 13:57:34;;;;;;;3.00;2.25;;;;;;;7.33;72.13;96319.81;6296351;28;20082;-69
2022/10/20 14:00:37;;;;;;;4.22;2.70;;;;;;;7.31;72.35;96329.56;6295296;28;20045;-70
2022/10/20 14:03:44;;;;;;;4.30;2.85;;;;;;;7.29;72.83;96328.78;6295045;28;20131;-69
2022/10/20 14:06:46;;;;;;;4.72;2.25;;;;;;;7.32;72.52;96328.59;6295295;28;20045;-70
2022/10/20 14:09:57;;;;;;;4.55;2.90;;;;;;;7.40;72.80;96326.38;6293761;28;20049;-70
2022/10/20 14:13:01;;;;;;;6.88;3.33;;;;;;;7.39;72.90;96328.16;6295423;28;20032;-71
2022/10/20 14:16:15;;;;;;;3.95;2.80;;;;;;;7.42;72.48;96329.75;6295205;28;20494;-69
2022/10/20 14:19:26;;;;;;;3.15;2.47;;;;;;;7.42;72.80;96324.50;6295383;28;20040;-69
2022/10/20 14:22:31;;;;;;;3.20;1.92;;;;;;;7.37;72.52;96319.53;6295235;28;20422;-70
2022/10/20 14:25:33;;;;;;;5.28;2.47;;;;;;;7.35;72.86;96317.94;6295151;28;20036;-69
2022/10/20 14:28:42;;;;;;;7.53;4.60;;;;;;;7.39;72.48;96325.53;6294496;28;20408;-70
2022/10/20 14:31:47;;;;;;;7.38;4.95;;;;;;;7.35;72.72;96315.34;6294655;28;20506;-69
2022/10/20 14:34:58;;;;;;;6.95;4.43;;;;;;;7.35;72.50;96318.78;6294314;28;20514;-69
2022/10/20 14:38:08;;;;;;;6.68;4.07;;;;;;;7.30;73.19;96320.00;6298995;28;20059;-70
2022/10/20 14:41:27;;;;;;;6.53;4.53;;;;;;;7.31;72.79;96316.47;6299056;28;20052;-70
2022/10/20 14:44:34;;;;;;;5.10;3.42;;;;;;;7.33;72.83;96325.03;6298700;28;20044;-70
2022/10/20 14:47:41;;;;;;;4.97;3.17;;;;;;;7.35;73.03;96323.19;6299822;28;20037;-67
2022/10/20 14:50:42;;;;;;;3.83;2.10;;;;;;;7.34;72.30;96318.91;6299045;28;20048;-69
2022/10/20 14:53:44;;;;;;;4.20;2.25;;;;;;;7.32;72.43;96315.53;6299138;28;20072;-70
2022/10/20 14:56:47;;;;;;;3.55;2.50;;;;;;;7.30;73.15;96325.22;6299597;28;20036;-70
2022/10/20 15:00:02;;;;;;;6.72;4.85;;;;;;;7.31;72.57;96326.94;6299375;28;20041;-69
2022/10/20 15:03:08;;;;;;;15.68;9.02;;;;;;;7.31;72.34;96317.31;6299209;28;20053;-69
2022/10/20 15:06:14;;;;;;;14.85;8.88;;;;;;;7.15;72.67;96306.91;6299186;28;20135;-69